Terminal Aerodrome Forecast
Issued by NWS Tuscon, AZ

Home | Current Version | Previous Version | Text Only | Print | Product List | Glossary On
Versions: 1 2 3 4 5 6 7 8 9 10 11 12 13 14 15 16 17 18 19 20
000
FTUS45 KTWC 162300
TAFTUS
TAF
KTUS 162333Z 1700/1724 08010KT P6SM SCT110 OVC140
     FM170400 14009KT P6SM VCSH SCT080 OVC100
      TEMPO 1710/1714 -SHRA SCT040 OVC060
     FM171400 13012KT P6SM SHRA BKN040 OVC060=

USA.gov is the U.S. government's official web portal to all federal, state and local government web resources and services.